Ellenwood, Georgia
Current Conditions -  °F | °C
As of 11:52 PM on Friday 24 Oct 2014 (Local Time) from KATL Reporting Station
Few Clouds Few Clouds  
Wind Chill: 56°   Ceiling: Unl
Heat Index: 56°   Visibility: 10mi
Dew Point: 44°   Wind: 8mph
Humidity: 64%   Direction: 310°NW
Pressure: 30.03"   Gusts: NA
Location:  33.61°N, 84.29°W
Report Text: KATL 250352Z 31007KT 10SM FEW250 13/07 A3003 RMK AO2 SLP167 T01330067
Loading
Personal Weather Stations






























Interactive Weather Map
Tropical Storm Tracking
New forecast layout! Learn more

10-Day Weather Forecast

Advertisements
Track Severe Weather on mobile